Terminal Aerodrome Forecast
Issued by NWS

Home | Current Version | Previous Version | Text Only | Print | Product List | Glossary On
Versions: 1 2 3 4 5 6 7 8 9 10 11 12 13 14
663
FTUS46 KPDT 112339
TAFRDM
TAF
KRDM 112339Z 1200/1224 34006KT P6SM SCT060 BKN100
     FM120600 VRB04KT P6SM SCT070 OVC090
     FM120900 16004KT P6SM BKN050 OVC090
     FM122100 27010KT P6SM -SHRA BKN045 OVC060=

USA.gov is the U.S. government's official web portal to all federal, state and local government web resources and services.